sensor_id;sensor_type;location;lat;lon;timestamp;temperature;humidity
69546;SHT31;56766;52.260;20.746;2023-02-26T00:01:42;1.20;88.70
69546;SHT31;56766;52.260;20.746;2023-02-26T00:04:09;1.18;88.23
69546;SHT31;56766;52.260;20.746;2023-02-26T00:06:39;1.16;87.93
69546;SHT31;56766;52.260;20.746;2023-02-26T00:09:18;1.16;87.70
69546;SHT31;56766;52.260;20.746;2023-02-26T00:11:46;1.15;87.52
69546;SHT31;56766;52.260;20.746;2023-02-26T00:14:15;1.11;86.96
69546;SHT31;56766;52.260;20.746;2023-02-26T00:19:43;1.07;86.87
69546;SHT31;56766;52.260;20.746;2023-02-26T00:22:10;1.04;86.59
69546;SHT31;56766;52.260;20.746;2023-02-26T00:24:37;1.02;85.69
69546;SHT31;56766;52.260;20.746;2023-02-26T00:27:04;1.02;85.77
69546;SHT31;56766;52.260;20.746;2023-02-26T00:29:31;0.98;85.46
69546;SHT31;56766;52.260;20.746;2023-02-26T00:31:58;0.97;85.55
69546;SHT31;56766;52.260;20.746;2023-02-26T00:34:25;0.95;85.82
69546;SHT31;56766;52.260;20.746;2023-02-26T00:40:13;0.89;85.51
69546;SHT31;56766;52.260;20.746;2023-02-26T00:42:44;0.85;85.19
69546;SHT31;56766;52.260;20.746;2023-02-26T00:45:12;0.81;84.57
69546;SHT31;56766;52.260;20.746;2023-02-26T00:51:07;0.77;84.03
69546;SHT31;56766;52.260;20.746;2023-02-26T00:56:26;0.73;84.81
69546;SHT31;56766;52.260;20.746;2023-02-26T00:58:53;0.72;85.05
69546;SHT31;56766;52.260;20.746;2023-02-26T01:01:19;0.71;85.33
69546;SHT31;56766;52.260;20.746;2023-02-26T01:03:46;0.71;85.47
69546;SHT31;56766;52.260;20.746;2023-02-26T01:06:18;0.71;85.40
69546;SHT31;56766;52.260;20.746;2023-02-26T01:11:48;0.75;85.89
69546;SHT31;56766;52.260;20.746;2023-02-26T01:14:16;0.77;85.65
69546;SHT31;56766;52.260;20.746;2023-02-26T01:17:17;0.79;85.60
69546;SHT31;56766;52.260;20.746;2023-02-26T01:25:09;0.78;85.51
69546;SHT31;56766;52.260;20.746;2023-02-26T01:27:57;0.78;85.46
69546;SHT31;56766;52.260;20.746;2023-02-26T01:30:25;0.78;85.47
69546;SHT31;56766;52.260;20.746;2023-02-26T01:35:42;0.73;84.19
69546;SHT31;56766;52.260;20.746;2023-02-26T01:38:52;0.70;84.14
69546;SHT31;56766;52.260;20.746;2023-02-26T01:47:39;0.64;82.87
69546;SHT31;56766;52.260;20.746;2023-02-26T01:50:21;0.61;82.22
69546;SHT31;56766;52.260;20.746;2023-02-26T01:53:23;0.59;81.53
69546;SHT31;56766;52.260;20.746;2023-02-26T01:56:18;0.59;81.42
69546;SHT31;56766;52.260;20.746;2023-02-26T01:58:47;0.57;81.68
69546;SHT31;56766;52.260;20.746;2023-02-26T02:01:16;0.56;82.06
69546;SHT31;56766;52.260;20.746;2023-02-26T02:03:43;0.54;81.73
69546;SHT31;56766;52.260;20.746;2023-02-26T02:06:21;0.56;81.98
69546;SHT31;56766;52.260;20.746;2023-02-26T02:08:51;0.55;82.21
69546;SHT31;56766;52.260;20.746;2023-02-26T02:11:19;0.54;82.10
69546;SHT31;56766;52.260;20.746;2023-02-26T02:13:53;0.53;81.62
69546;SHT31;56766;52.260;20.746;2023-02-26T02:22:51;0.55;82.28
69546;SHT31;56766;52.260;20.746;2023-02-26T02:26:08;0.54;82.27
69546;SHT31;56766;52.260;20.746;2023-02-26T02:29:06;0.55;82.56
69546;SHT31;56766;52.260;20.746;2023-02-26T02:35:25;0.55;82.42
69546;SHT31;56766;52.260;20.746;2023-02-26T02:38:08;0.55;82.47
69546;SHT31;56766;52.260;20.746;2023-02-26T02:40:50;0.54;82.38
69546;SHT31;56766;52.260;20.746;2023-02-26T02:43:27;0.55;82.73
69546;SHT31;56766;52.260;20.746;2023-02-26T02:46:04;0.57;82.84
69546;SHT31;56766;52.260;20.746;2023-02-26T02:48:48;0.59;83.14
69546;SHT31;56766;52.260;20.746;2023-02-26T02:54:06;0.61;83.28
69546;SHT31;56766;52.260;20.746;2023-02-26T02:56:51;0.61;83.21
69546;SHT31;56766;52.260;20.746;2023-02-26T02:59:47;0.62;83.17
69546;SHT31;56766;52.260;20.746;2023-02-26T03:05:04;0.62;83.60
69546;SHT31;56766;52.260;20.746;2023-02-26T03:07:35;0.64;83.42
69546;SHT31;56766;52.260;20.746;2023-02-26T03:10:08;0.63;83.32
69546;SHT31;56766;52.260;20.746;2023-02-26T03:12:37;0.63;83.61
69546;SHT31;56766;52.260;20.746;2023-02-26T03:15:05;0.64;83.66
69546;SHT31;56766;52.260;20.746;2023-02-26T03:20:31;0.65;84.07
69546;SHT31;56766;52.260;20.746;2023-02-26T03:23:15;0.67;84.19
69546;SHT31;56766;52.260;20.746;2023-02-26T03:25:57;0.67;84.03
69546;SHT31;56766;52.260;20.746;2023-02-26T03:29:00;0.64;83.99
69546;SHT31;56766;52.260;20.746;2023-02-26T03:31:59;0.63;83.78
69546;SHT31;56766;52.260;20.746;2023-02-26T03:34:53;0.64;84.06
69546;SHT31;56766;52.260;20.746;2023-02-26T03:37:57;0.67;84.65
69546;SHT31;56766;52.260;20.746;2023-02-26T03:40:34;0.70;84.68
69546;SHT31;56766;52.260;20.746;2023-02-26T03:43:19;0.70;84.55
69546;SHT31;56766;52.260;20.746;2023-02-26T03:45:57;0.69;84.24
69546;SHT31;56766;52.260;20.746;2023-02-26T03:48:30;0.69;84.22
69546;SHT31;56766;52.260;20.746;2023-02-26T03:51:09;0.68;84.54
69546;SHT31;56766;52.260;20.746;2023-02-26T03:53:46;0.69;84.50
69546;SHT31;56766;52.260;20.746;2023-02-26T03:56:22;0.68;84.58
69546;SHT31;56766;52.260;20.746;2023-02-26T03:58:54;0.68;84.67
69546;SHT31;56766;52.260;20.746;2023-02-26T04:01:28;0.69;84.86
69546;SHT31;56766;52.260;20.746;2023-02-26T04:04:09;0.68;84.97
69546;SHT31;56766;52.260;20.746;2023-02-26T04:06:41;0.68;85.07
69546;SHT31;56766;52.260;20.746;2023-02-26T04:09:09;0.67;84.93
69546;SHT31;56766;52.260;20.746;2023-02-26T04:11:38;0.67;84.99
69546;SHT31;56766;52.260;20.746;2023-02-26T04:14:05;0.67;84.79
69546;SHT31;56766;52.260;20.746;2023-02-26T04:16:32;0.65;84.72
69546;SHT31;56766;52.260;20.746;2023-02-26T04:19:01;0.65;84.70
69546;SHT31;56766;52.260;20.746;2023-02-26T04:21:29;0.65;84.67
69546;SHT31;56766;52.260;20.746;2023-02-26T04:23:56;0.65;84.26
69546;SHT31;56766;52.260;20.746;2023-02-26T04:26:23;0.65;84.32
69546;SHT31;56766;52.260;20.746;2023-02-26T04:28:49;0.66;84.50
69546;SHT31;56766;52.260;20.746;2023-02-26T04:31:16;0.67;84.30
69546;SHT31;56766;52.260;20.746;2023-02-26T04:33:43;0.66;84.36
69546;SHT31;56766;52.260;20.746;2023-02-26T04:36:10;0.67;84.40
69546;SHT31;56766;52.260;20.746;2023-02-26T04:38:37;0.69;84.57
69546;SHT31;56766;52.260;20.746;2023-02-26T04:41:05;0.72;84.55
69546;SHT31;56766;52.260;20.746;2023-02-26T04:43:32;0.73;84.68
69546;SHT31;56766;52.260;20.746;2023-02-26T04:45:59;0.72;84.54
69546;SHT31;56766;52.260;20.746;2023-02-26T04:48:26;0.70;84.37
69546;SHT31;56766;52.260;20.746;2023-02-26T04:50:53;0.69;84.24
69546;SHT31;56766;52.260;20.746;2023-02-26T04:53:20;0.66;84.18
69546;SHT31;56766;52.260;20.746;2023-02-26T04:55:48;0.66;84.07
69546;SHT31;56766;52.260;20.746;2023-02-26T04:58:16;0.67;84.09
69546;SHT31;56766;52.260;20.746;2023-02-26T05:00:48;0.64;84.10
69546;SHT31;56766;52.260;20.746;2023-02-26T05:03:21;0.62;83.67
69546;SHT31;56766;52.260;20.746;2023-02-26T05:05:48;0.58;83.05
69546;SHT31;56766;52.260;20.746;2023-02-26T05:08:15;0.54;82.50
69546;SHT31;56766;52.260;20.746;2023-02-26T05:10:42;0.52;82.41
69546;SHT31;56766;52.260;20.746;2023-02-26T05:13:08;0.48;81.86
69546;SHT31;56766;52.260;20.746;2023-02-26T05:15:35;0.44;81.60
69546;SHT31;56766;52.260;20.746;2023-02-26T05:18:02;0.41;81.41
69546;SHT31;56766;52.260;20.746;2023-02-26T05:20:30;0.41;81.42
69546;SHT31;56766;52.260;20.746;2023-02-26T05:22:56;0.39;81.27
69546;SHT31;56766;52.260;20.746;2023-02-26T05:25:23;0.34;80.56
69546;SHT31;56766;52.260;20.746;2023-02-26T05:27:50;0.31;80.56
69546;SHT31;56766;52.260;20.746;2023-02-26T05:30:17;0.27;80.26
69546;SHT31;56766;52.260;20.746;2023-02-26T05:32:44;0.22;79.81
69546;SHT31;56766;52.260;20.746;2023-02-26T05:35:11;0.18;79.53
69546;SHT31;56766;52.260;20.746;2023-02-26T05:37:39;0.15;79.47
69546;SHT31;56766;52.260;20.746;2023-02-26T05:40:08;0.10;78.65
69546;SHT31;56766;52.260;20.746;2023-02-26T05:42:39;0.03;77.39
69546;SHT31;56766;52.260;20.746;2023-02-26T05:45:07;0.00;77.69
69546;SHT31;56766;52.260;20.746;2023-02-26T05:47:36;-0.01;77.99
69546;SHT31;56766;52.260;20.746;2023-02-26T05:50:05;-0.02;77.82
69546;SHT31;56766;52.260;20.746;2023-02-26T05:52:33;-0.03;78.16
69546;SHT31;56766;52.260;20.746;2023-02-26T05:55:00;-0.07;76.86
69546;SHT31;56766;52.260;20.746;2023-02-26T05:57:27;-0.08;77.33
69546;SHT31;56766;52.260;20.746;2023-02-26T05:59:54;-0.09;77.60
69546;SHT31;56766;52.260;20.746;2023-02-26T06:02:21;-0.10;76.96
69546;SHT31;56766;52.260;20.746;2023-02-26T06:04:48;-0.11;77.03
69546;SHT31;56766;52.260;20.746;2023-02-26T06:07:15;-0.13;76.70
69546;SHT31;56766;52.260;20.746;2023-02-26T06:09:42;-0.15;76.08
69546;SHT31;56766;52.260;20.746;2023-02-26T06:12:09;-0.17;75.16
69546;SHT31;56766;52.260;20.746;2023-02-26T06:14:36;-0.18;74.62
69546;SHT31;56766;52.260;20.746;2023-02-26T06:17:03;-0.20;74.51
69546;SHT31;56766;52.260;20.746;2023-02-26T06:19:30;-0.21;73.45
69546;SHT31;56766;52.260;20.746;2023-02-26T06:21:57;-0.22;74.08
69546;SHT31;56766;52.260;20.746;2023-02-26T06:24:24;-0.22;74.14
69546;SHT31;56766;52.260;20.746;2023-02-26T06:26:51;-0.22;74.00
69546;SHT31;56766;52.260;20.746;2023-02-26T06:29:18;-0.21;73.87
69546;SHT31;56766;52.260;20.746;2023-02-26T06:31:46;-0.19;74.42
69546;SHT31;56766;52.260;20.746;2023-02-26T06:34:13;-0.18;74.23
69546;SHT31;56766;52.260;20.746;2023-02-26T06:36:41;-0.16;74.05
69546;SHT31;56766;52.260;20.746;2023-02-26T06:39:08;-0.12;73.54
69546;SHT31;56766;52.260;20.746;2023-02-26T06:41:34;-0.11;72.77
69546;SHT31;56766;52.260;20.746;2023-02-26T06:44:02;-0.06;72.78
69546;SHT31;56766;52.260;20.746;2023-02-26T06:46:29;-0.02;72.99
69546;SHT31;56766;52.260;20.746;2023-02-26T06:48:57;0.02;73.03
69546;SHT31;56766;52.260;20.746;2023-02-26T06:51:26;0.06;73.08
69546;SHT31;56766;52.260;20.746;2023-02-26T06:53:52;0.10;72.97
69546;SHT31;56766;52.260;20.746;2023-02-26T06:56:19;0.12;72.66
69546;SHT31;56766;52.260;20.746;2023-02-26T06:58:46;0.14;71.92
69546;SHT31;56766;52.260;20.746;2023-02-26T07:01:13;0.15;72.14
69546;SHT31;56766;52.260;20.746;2023-02-26T07:03:40;0.19;72.72
69546;SHT31;56766;52.260;20.746;2023-02-26T07:06:10;0.22;72.59
69546;SHT31;56766;52.260;20.746;2023-02-26T07:08:38;0.27;72.73
69546;SHT31;56766;52.260;20.746;2023-02-26T07:11:06;0.29;72.63
69546;SHT31;56766;52.260;20.746;2023-02-26T07:13:35;0.33;72.79
69546;SHT31;56766;52.260;20.746;2023-02-26T07:16:04;0.36;73.03
69546;SHT31;56766;52.260;20.746;2023-02-26T07:18:34;0.42;73.10
69546;SHT31;56766;52.260;20.746;2023-02-26T07:21:03;0.48;73.09
69546;SHT31;56766;52.260;20.746;2023-02-26T07:23:31;0.52;72.50
69546;SHT31;56766;52.260;20.746;2023-02-26T07:25:58;0.55;72.15
69546;SHT31;56766;52.260;20.746;2023-02-26T07:28:25;0.56;71.96
69546;SHT31;56766;52.260;20.746;2023-02-26T07:30:56;0.55;71.69
69546;SHT31;56766;52.260;20.746;2023-02-26T07:33:24;0.54;72.06
69546;SHT31;56766;52.260;20.746;2023-02-26T07:35:54;0.56;72.68
69546;SHT31;56766;52.260;20.746;2023-02-26T07:38:21;0.55;72.33
69546;SHT31;56766;52.260;20.746;2023-02-26T07:40:48;0.52;72.26
69546;SHT31;56766;52.260;20.746;2023-02-26T07:43:17;0.53;72.66
69546;SHT31;56766;52.260;20.746;2023-02-26T07:45:43;0.51;71.63
69546;SHT31;56766;52.260;20.746;2023-02-26T07:48:10;0.48;71.27
69546;SHT31;56766;52.260;20.746;2023-02-26T07:50:37;0.49;71.28
69546;SHT31;56766;52.260;20.746;2023-02-26T07:53:04;0.52;71.06
69546;SHT31;56766;52.260;20.746;2023-02-26T07:55:30;0.57;71.48
69546;SHT31;56766;52.260;20.746;2023-02-26T07:57:57;0.61;71.50
69546;SHT31;56766;52.260;20.746;2023-02-26T08:00:24;0.63;71.39
69546;SHT31;56766;52.260;20.746;2023-02-26T08:02:51;0.65;70.75
69546;SHT31;56766;52.260;20.746;2023-02-26T08:05:18;0.66;70.78
69546;SHT31;56766;52.260;20.746;2023-02-26T08:07:45;0.66;70.76
69546;SHT31;56766;52.260;20.746;2023-02-26T08:10:11;0.68;70.83
69546;SHT31;56766;52.260;20.746;2023-02-26T08:12:39;0.71;71.02
69546;SHT31;56766;52.260;20.746;2023-02-26T08:15:07;0.71;71.13
69546;SHT31;56766;52.260;20.746;2023-02-26T08:17:34;0.68;70.24
69546;SHT31;56766;52.260;20.746;2023-02-26T08:20:01;0.69;70.69
69546;SHT31;56766;52.260;20.746;2023-02-26T08:22:30;0.70;70.99
69546;SHT31;56766;52.260;20.746;2023-02-26T08:24:57;0.70;70.79
69546;SHT31;56766;52.260;20.746;2023-02-26T08:27:24;0.69;70.52
69546;SHT31;56766;52.260;20.746;2023-02-26T08:29:51;0.68;70.53
69546;SHT31;56766;52.260;20.746;2023-02-26T08:32:18;0.71;71.38
69546;SHT31;56766;52.260;20.746;2023-02-26T08:34:48;0.71;71.15
69546;SHT31;56766;52.260;20.746;2023-02-26T08:37:14;0.68;70.69
69546;SHT31;56766;52.260;20.746;2023-02-26T08:39:41;0.67;70.73
69546;SHT31;56766;52.260;20.746;2023-02-26T08:42:09;0.63;70.50
69546;SHT31;56766;52.260;20.746;2023-02-26T08:44:36;0.60;70.59
69546;SHT31;56766;52.260;20.746;2023-02-26T08:47:03;0.59;70.58
69546;SHT31;56766;52.260;20.746;2023-02-26T08:49:31;0.58;70.85
69546;SHT31;56766;52.260;20.746;2023-02-26T08:51:58;0.59;71.06
69546;SHT31;56766;52.260;20.746;2023-02-26T08:54:25;0.60;70.95
69546;SHT31;56766;52.260;20.746;2023-02-26T08:56:52;0.63;71.40
69546;SHT31;56766;52.260;20.746;2023-02-26T08:59:21;0.66;71.64
69546;SHT31;56766;52.260;20.746;2023-02-26T09:01:47;0.71;71.70
69546;SHT31;56766;52.260;20.746;2023-02-26T09:04:15;0.74;71.81
69546;SHT31;56766;52.260;20.746;2023-02-26T09:06:42;0.79;72.05
69546;SHT31;56766;52.260;20.746;2023-02-26T09:09:09;0.79;71.60
69546;SHT31;56766;52.260;20.746;2023-02-26T09:11:36;0.81;71.98
69546;SHT31;56766;52.260;20.746;2023-02-26T09:14:04;0.84;72.06
69546;SHT31;56766;52.260;20.746;2023-02-26T09:16:31;0.86;71.93
69546;SHT31;56766;52.260;20.746;2023-02-26T09:19:03;0.92;72.47
69546;SHT31;56766;52.260;20.746;2023-02-26T09:21:32;0.97;72.33
69546;SHT31;56766;52.260;20.746;2023-02-26T09:23:59;1.03;72.71
69546;SHT31;56766;52.260;20.746;2023-02-26T09:26:25;1.05;72.51
69546;SHT31;56766;52.260;20.746;2023-02-26T09:28:52;1.07;72.82
69546;SHT31;56766;52.260;20.746;2023-02-26T09:31:19;1.10;72.59
69546;SHT31;56766;52.260;20.746;2023-02-26T09:33:46;1.09;72.40
69546;SHT31;56766;52.260;20.746;2023-02-26T09:36:13;1.10;72.40
69546;SHT31;56766;52.260;20.746;2023-02-26T09:38:40;1.15;72.83
69546;SHT31;56766;52.260;20.746;2023-02-26T09:41:35;1.22;72.89
69546;SHT31;56766;52.260;20.746;2023-02-26T09:44:24;1.30;72.56
69546;SHT31;56766;52.260;20.746;2023-02-26T09:55:40;1.54;72.56
69546;SHT31;56766;52.260;20.746;2023-02-26T09:58:28;1.54;71.43
69546;SHT31;56766;52.260;20.746;2023-02-26T10:10:18;1.74;70.76
69546;SHT31;56766;52.260;20.746;2023-02-26T10:12:56;1.81;71.26
69546;SHT31;56766;52.260;20.746;2023-02-26T10:15:36;1.88;70.59
69546;SHT31;56766;52.260;20.746;2023-02-26T10:18:23;1.97;71.14
69546;SHT31;56766;52.260;20.746;2023-02-26T10:21:09;2.00;70.13
69546;SHT31;56766;52.260;20.746;2023-02-26T10:23:44;1.97;70.47
69546;SHT31;56766;52.260;20.746;2023-02-26T10:34:53;1.34;67.39
69546;SHT31;56766;52.260;20.746;2023-02-26T10:37:50;1.31;67.69
69546;SHT31;56766;52.260;20.746;2023-02-26T10:40:33;1.33;67.53
69546;SHT31;56766;52.260;20.746;2023-02-26T10:43:15;1.34;67.30
69546;SHT31;56766;52.260;20.746;2023-02-26T10:51:22;1.41;67.41
69546;SHT31;56766;52.260;20.746;2023-02-26T10:54:26;1.38;66.89
69546;SHT31;56766;52.260;20.746;2023-02-26T10:56:58;1.37;67.00
69546;SHT31;56766;52.260;20.746;2023-02-26T10:59:26;1.42;67.40
69546;SHT31;56766;52.260;20.746;2023-02-26T11:01:55;1.49;67.65
69546;SHT31;56766;52.260;20.746;2023-02-26T11:04:26;1.47;66.79
69546;SHT31;56766;52.260;20.746;2023-02-26T11:06:59;1.44;67.22
69546;SHT31;56766;52.260;20.746;2023-02-26T11:09:37;1.41;67.20
69546;SHT31;56766;52.260;20.746;2023-02-26T11:14:41;1.35;67.06
69546;SHT31;56766;52.260;20.746;2023-02-26T11:17:27;1.30;67.14
69546;SHT31;56766;52.260;20.746;2023-02-26T11:20:16;1.28;67.25
69546;SHT31;56766;52.260;20.746;2023-02-26T11:23:16;1.26;67.51
69546;SHT31;56766;52.260;20.746;2023-02-26T11:25:51;1.28;67.88
69546;SHT31;56766;52.260;20.746;2023-02-26T11:28:44;1.33;68.41
69546;SHT31;56766;52.260;20.746;2023-02-26T11:31:20;1.43;68.52
69546;SHT31;56766;52.260;20.746;2023-02-26T11:33:52;1.50;68.52
69546;SHT31;56766;52.260;20.746;2023-02-26T11:36:27;1.52;68.38
69546;SHT31;56766;52.260;20.746;2023-02-26T11:39:04;1.54;68.36
69546;SHT31;56766;52.260;20.746;2023-02-26T11:41:39;1.62;68.79
69546;SHT31;56766;52.260;20.746;2023-02-26T11:44:14;1.71;69.01
69546;SHT31;56766;52.260;20.746;2023-02-26T11:46:51;1.78;68.81
69546;SHT31;56766;52.260;20.746;2023-02-26T11:49:27;1.81;68.21
69546;SHT31;56766;52.260;20.746;2023-02-26T11:54:34;1.85;67.39
69546;SHT31;56766;52.260;20.746;2023-02-26T11:57:24;1.82;67.04
69546;SHT31;56766;52.260;20.746;2023-02-26T11:59:55;1.83;67.95
69546;SHT31;56766;52.260;20.746;2023-02-26T12:02:31;1.78;67.27
69546;SHT31;56766;52.260;20.746;2023-02-26T12:05:05;1.68;67.08
69546;SHT31;56766;52.260;20.746;2023-02-26T12:07:33;1.64;67.62
69546;SHT31;56766;52.260;20.746;2023-02-26T12:10:00;1.59;67.19
69546;SHT31;56766;52.260;20.746;2023-02-26T12:22:41;1.89;65.84
69546;SHT31;56766;52.260;20.746;2023-02-26T12:31:17;1.98;64.95
69546;SHT31;56766;52.260;20.746;2023-02-26T12:34:16;1.99;64.78
69546;SHT31;56766;52.260;20.746;2023-02-26T13:18:22;2.72;62.80
69546;SHT31;56766;52.260;20.746;2023-02-26T13:20:58;2.65;62.72
69546;SHT31;56766;52.260;20.746;2023-02-26T13:26:33;2.62;62.68
69546;SHT31;56766;52.260;20.746;2023-02-26T13:29:14;2.65;63.43
69546;SHT31;56766;52.260;20.746;2023-02-26T13:31:57;2.72;64.32
69546;SHT31;56766;52.260;20.746;2023-02-26T13:43:35;2.59;62.63
69546;SHT31;56766;52.260;20.746;2023-02-26T13:46:30;2.56;62.97
69546;SHT31;56766;52.260;20.746;2023-02-26T13:51:56;2.51;63.38
69546;SHT31;56766;52.260;20.746;2023-02-26T13:54:27;2.51;63.01
69546;SHT31;56766;52.260;20.746;2023-02-26T14:00:30;2.57;63.11
69546;SHT31;56766;52.260;20.746;2023-02-26T14:03:30;2.58;63.32
69546;SHT31;56766;52.260;20.746;2023-02-26T14:06:37;2.59;62.98
69546;SHT31;56766;52.260;20.746;2023-02-26T14:19:44;2.45;64.29
69546;SHT31;56766;52.260;20.746;2023-02-26T14:22:46;2.39;64.48
69546;SHT31;56766;52.260;20.746;2023-02-26T14:25:39;2.33;64.77
69546;SHT31;56766;52.260;20.746;2023-02-26T14:33:30;2.19;65.32
69546;SHT31;56766;52.260;20.746;2023-02-26T14:36:05;2.17;65.95
69546;SHT31;56766;52.260;20.746;2023-02-26T14:38:44;2.15;65.62
69546;SHT31;56766;52.260;20.746;2023-02-26T14:41:28;2.15;65.43
69546;SHT31;56766;52.260;20.746;2023-02-26T14:43:58;2.14;65.27
69546;SHT31;56766;52.260;20.746;2023-02-26T14:46:29;2.17;66.22
69546;SHT31;56766;52.260;20.746;2023-02-26T14:48:56;2.22;66.41
69546;SHT31;56766;52.260;20.746;2023-02-26T14:55:26;2.28;66.43
69546;SHT31;56766;52.260;20.746;2023-02-26T15:01:34;2.33;66.49
69546;SHT31;56766;52.260;20.746;2023-02-26T15:04:38;2.32;66.69
69546;SHT31;56766;52.260;20.746;2023-02-26T15:10:28;2.27;66.54
69546;SHT31;56766;52.260;20.746;2023-02-26T15:16:05;2.24;67.11
69546;SHT31;56766;52.260;20.746;2023-02-26T15:19:00;2.22;67.53
69546;SHT31;56766;52.260;20.746;2023-02-26T15:24:51;2.18;67.90
69546;SHT31;56766;52.260;20.746;2023-02-26T15:27:19;2.16;69.05
69546;SHT31;56766;52.260;20.746;2023-02-26T15:29:48;2.15;69.30
69546;SHT31;56766;52.260;20.746;2023-02-26T15:32:27;2.12;69.66
69546;SHT31;56766;52.260;20.746;2023-02-26T15:35:16;2.10;69.37
69546;SHT31;56766;52.260;20.746;2023-02-26T15:37:49;2.08;69.48
69546;SHT31;56766;52.260;20.746;2023-02-26T15:40:20;2.05;69.27
69546;SHT31;56766;52.260;20.746;2023-02-26T15:42:54;2.03;69.44
69546;SHT31;56766;52.260;20.746;2023-02-26T15:45:30;2.00;69.47
69546;SHT31;56766;52.260;20.746;2023-02-26T15:48:06;1.99;70.54
69546;SHT31;56766;52.260;20.746;2023-02-26T15:50:42;1.98;70.99
69546;SHT31;56766;52.260;20.746;2023-02-26T15:53:40;1.97;71.30
69546;SHT31;56766;52.260;20.746;2023-02-26T15:56:31;1.96;71.71
69546;SHT31;56766;52.260;20.746;2023-02-26T15:59:07;1.94;71.73
69546;SHT31;56766;52.260;20.746;2023-02-26T16:01:40;1.92;72.02
69546;SHT31;56766;52.260;20.746;2023-02-26T16:04:13;1.89;72.13
69546;SHT31;56766;52.260;20.746;2023-02-26T16:06:45;1.85;72.35
69546;SHT31;56766;52.260;20.746;2023-02-26T16:09:23;1.83;72.72
69546;SHT31;56766;52.260;20.746;2023-02-26T16:11:58;1.79;72.69
69546;SHT31;56766;52.260;20.746;2023-02-26T16:14:35;1.76;72.01
69546;SHT31;56766;52.260;20.746;2023-02-26T16:17:06;1.69;71.94
69546;SHT31;56766;52.260;20.746;2023-02-26T16:19:44;1.62;72.47
69546;SHT31;56766;52.260;20.746;2023-02-26T16:22:20;1.56;73.07
69546;SHT31;56766;52.260;20.746;2023-02-26T16:25:19;1.50;73.24
69546;SHT31;56766;52.260;20.746;2023-02-26T16:27:56;1.39;72.58
69546;SHT31;56766;52.260;20.746;2023-02-26T16:30:32;1.30;72.66
69546;SHT31;56766;52.260;20.746;2023-02-26T16:33:04;1.21;72.97
69546;SHT31;56766;52.260;20.746;2023-02-26T16:35:42;1.14;73.06
69546;SHT31;56766;52.260;20.746;2023-02-26T16:38:20;1.09;73.28
69546;SHT31;56766;52.260;20.746;2023-02-26T16:41:04;1.06;73.43
69546;SHT31;56766;52.260;20.746;2023-02-26T16:47:00;1.02;73.63
69546;SHT31;56766;52.260;20.746;2023-02-26T16:49:15;1.02;73.99
69546;SHT31;56766;52.260;20.746;2023-02-26T16:51:59;1.04;74.25
69546;SHT31;56766;52.260;20.746;2023-02-26T16:54:31;1.03;74.02
69546;SHT31;56766;52.260;20.746;2023-02-26T16:59:53;1.02;73.50
69546;SHT31;56766;52.260;20.746;2023-02-26T17:02:28;0.99;73.32
69546;SHT31;56766;52.260;20.746;2023-02-26T17:05:22;0.99;73.40
69546;SHT31;56766;52.260;20.746;2023-02-26T17:10:47;0.92;73.49
69546;SHT31;56766;52.260;20.746;2023-02-26T17:13:26;0.88;73.59
69546;SHT31;56766;52.260;20.746;2023-02-26T17:16:05;0.88;74.01
69546;SHT31;56766;52.260;20.746;2023-02-26T17:18:34;0.88;74.04
69546;SHT31;56766;52.260;20.746;2023-02-26T17:21:02;0.88;73.79
69546;SHT31;56766;52.260;20.746;2023-02-26T17:23:35;0.89;73.85
69546;SHT31;56766;52.260;20.746;2023-02-26T17:26:04;0.90;73.65
69546;SHT31;56766;52.260;20.746;2023-02-26T17:28:36;0.89;72.94
69546;SHT31;56766;52.260;20.746;2023-02-26T17:31:07;0.89;72.45
69546;SHT31;56766;52.260;20.746;2023-02-26T17:33:44;0.90;72.41
69546;SHT31;56766;52.260;20.746;2023-02-26T17:36:15;0.89;72.39
69546;SHT31;56766;52.260;20.746;2023-02-26T17:38:46;0.89;72.27
69546;SHT31;56766;52.260;20.746;2023-02-26T17:41:16;0.90;71.83
69546;SHT31;56766;52.260;20.746;2023-02-26T17:43:43;0.92;71.57
69546;SHT31;56766;52.260;20.746;2023-02-26T17:46:11;0.93;71.88
69546;SHT31;56766;52.260;20.746;2023-02-26T17:48:38;0.94;71.57
69546;SHT31;56766;52.260;20.746;2023-02-26T17:51:07;0.95;71.11
69546;SHT31;56766;52.260;20.746;2023-02-26T17:53:37;0.97;71.25
69546;SHT31;56766;52.260;20.746;2023-02-26T17:56:10;0.97;71.07
69546;SHT31;56766;52.260;20.746;2023-02-26T17:58:48;1.00;70.94
69546;SHT31;56766;52.260;20.746;2023-02-26T18:01:17;1.03;71.05
69546;SHT31;56766;52.260;20.746;2023-02-26T18:03:44;1.05;70.61
69546;SHT31;56766;52.260;20.746;2023-02-26T18:06:14;1.09;70.12
69546;SHT31;56766;52.260;20.746;2023-02-26T18:08:42;1.12;69.97
69546;SHT31;56766;52.260;20.746;2023-02-26T18:11:13;1.14;69.80
69546;SHT31;56766;52.260;20.746;2023-02-26T18:13:42;1.14;70.13
69546;SHT31;56766;52.260;20.746;2023-02-26T18:16:21;1.12;69.95
69546;SHT31;56766;52.260;20.746;2023-02-26T18:18:52;1.11;69.65
69546;SHT31;56766;52.260;20.746;2023-02-26T18:21:19;1.11;69.60
69546;SHT31;56766;52.260;20.746;2023-02-26T18:23:46;1.11;69.44
69546;SHT31;56766;52.260;20.746;2023-02-26T18:26:16;1.09;69.51
69546;SHT31;56766;52.260;20.746;2023-02-26T18:28:49;1.10;68.88
69546;SHT31;56766;52.260;20.746;2023-02-26T18:31:18;1.12;69.27
69546;SHT31;56766;52.260;20.746;2023-02-26T18:33:45;1.11;69.27
69546;SHT31;56766;52.260;20.746;2023-02-26T18:36:22;1.13;69.18
69546;SHT31;56766;52.260;20.746;2023-02-26T18:38:55;1.13;68.94
69546;SHT31;56766;52.260;20.746;2023-02-26T18:41:23;1.16;68.68
69546;SHT31;56766;52.260;20.746;2023-02-26T18:43:50;1.16;68.65
69546;SHT31;56766;52.260;20.746;2023-02-26T18:46:17;1.18;68.40
69546;SHT31;56766;52.260;20.746;2023-02-26T18:48:44;1.19;68.40
69546;SHT31;56766;52.260;20.746;2023-02-26T18:51:12;1.20;67.82
69546;SHT31;56766;52.260;20.746;2023-02-26T18:53:39;1.19;67.83
69546;SHT31;56766;52.260;20.746;2023-02-26T18:56:06;1.19;66.82
69546;SHT31;56766;52.260;20.746;2023-02-26T18:58:33;1.21;66.08
69546;SHT31;56766;52.260;20.746;2023-02-26T19:01:02;1.20;66.00
69546;SHT31;56766;52.260;20.746;2023-02-26T19:03:31;1.21;65.22
69546;SHT31;56766;52.260;20.746;2023-02-26T19:06:04;1.23;65.17
69546;SHT31;56766;52.260;20.746;2023-02-26T19:08:38;1.23;64.90
69546;SHT31;56766;52.260;20.746;2023-02-26T19:11:07;1.23;64.80
69546;SHT31;56766;52.260;20.746;2023-02-26T19:13:34;1.22;64.88
69546;SHT31;56766;52.260;20.746;2023-02-26T19:16:02;1.22;65.32
69546;SHT31;56766;52.260;20.746;2023-02-26T19:18:29;1.22;65.04
69546;SHT31;56766;52.260;20.746;2023-02-26T19:20:56;1.21;64.96
69546;SHT31;56766;52.260;20.746;2023-02-26T19:23:23;1.22;64.85
69546;SHT31;56766;52.260;20.746;2023-02-26T19:25:50;1.21;65.01
69546;SHT31;56766;52.260;20.746;2023-02-26T19:28:18;1.21;64.96
69546;SHT31;56766;52.260;20.746;2023-02-26T19:30:45;1.20;65.33